createdAt,value
2018-11-23T00:04:39.565Z,67.47
2018-11-23T00:09:43.985Z,67.59
2018-11-23T00:14:48.807Z,67.83
2018-11-23T00:19:53.260Z,67.92
2018-11-23T00:24:57.174Z,68.08
2018-11-23T00:30:01.859Z,68.10
2018-11-23T00:35:08.330Z,68.09
2018-11-23T00:40:14.576Z,67.94
2018-11-23T00:45:18.709Z,68.17
2018-11-23T00:50:23.639Z,68.06
2018-11-23T00:55:28.101Z,68.23
2018-11-23T01:00:33.023Z,68.39
2018-11-23T01:05:36.894Z,68.33
2018-11-23T01:10:40.761Z,68.55
2018-11-23T01:15:44.817Z,68.82
2018-11-23T01:20:48.622Z,68.85
2018-11-23T01:25:52.631Z,68.71
2018-11-23T01:30:56.553Z,68.80
2018-11-23T01:36:00.634Z,69.01
2018-11-23T01:41:05.350Z,69.35
2018-11-23T01:46:09.295Z,69.27
2018-11-23T01:51:13.189Z,69.44
2018-11-23T01:56:18.189Z,69.61
2018-11-23T02:01:22.150Z,69.56
2018-11-23T02:06:26.116Z,69.49
2018-11-23T02:11:29.941Z,69.43
2018-11-23T02:16:33.823Z,69.17
2018-11-23T02:21:37.908Z,69.30
2018-11-23T02:26:42.127Z,69.50
2018-11-23T02:31:46.072Z,69.04
2018-11-23T02:36:50.057Z,69.13
2018-11-23T02:41:54.982Z,68.91
2018-11-23T02:46:58.919Z,69.23
2018-11-23T02:52:02.900Z,69.46
2018-11-23T02:57:12.212Z,69.14
2018-11-23T03:02:16.587Z,68.93
2018-11-23T03:07:20.701Z,69.47
2018-11-23T03:12:25.048Z,69.09
2018-11-23T03:17:29.082Z,69.77
2018-11-23T03:22:33.704Z,69.62
2018-11-23T03:27:37.824Z,69.89
2018-11-23T03:32:41.920Z,69.77
2018-11-23T03:37:46.084Z,69.79
2018-11-23T03:42:50.086Z,69.61
2018-11-23T03:47:53.984Z,69.68
2018-11-23T03:52:59.190Z,69.76
2018-11-23T03:58:03.161Z,69.61
2018-11-23T04:03:07.032Z,69.70
2018-11-23T04:08:11.161Z,69.78
2018-11-23T04:13:16.092Z,69.72
2018-11-23T04:18:20.163Z,69.85
2018-11-23T04:23:24.226Z,69.83
2018-11-23T04:28:28.178Z,69.82
2018-11-23T04:33:32.202Z,69.90
2018-11-23T04:38:36.375Z,69.93
2018-11-23T04:43:40.866Z,69.58
2018-11-23T04:48:50.259Z,69.90
2018-11-23T04:54:06.331Z,69.96
2018-11-23T04:59:10.463Z,70.14
2018-11-23T05:04:14.481Z,69.88
2018-11-23T05:09:18.415Z,69.81
2018-11-23T05:14:22.547Z,70.28
2018-11-23T05:19:27.018Z,70.57
2018-11-23T05:24:31.180Z,70.20
2018-11-23T05:29:35.402Z,69.91
2018-11-23T05:34:40.804Z,69.76
2018-11-23T05:39:46.063Z,69.78
2018-11-23T05:44:50.142Z,70.04
2018-11-23T05:49:53.999Z,69.73
2018-11-23T05:54:58.056Z,69.72
2018-11-23T06:00:02.748Z,70.07
2018-11-23T06:05:07.032Z,70.20
2018-11-23T06:10:13.952Z,70.20
2018-11-23T06:15:19.895Z,70.45
2018-11-23T06:20:25.281Z,70.53
2018-11-23T06:25:43.356Z,70.80
2018-11-23T06:30:48.255Z,70.97
2018-11-23T06:35:52.393Z,70.58
2018-11-23T06:40:57.191Z,70.48
2018-11-23T06:46:02.179Z,70.43
2018-11-23T06:51:06.577Z,70.37
2018-11-23T06:56:10.920Z,70.45
2018-11-23T07:01:14.974Z,70.51
2018-11-23T07:06:19.865Z,70.42
2018-11-23T07:11:25.398Z,70.25
2018-11-23T07:16:29.839Z,69.39
2018-11-23T07:21:34.014Z,70.23
2018-11-23T07:26:39.511Z,69.93
2018-11-23T07:31:44.488Z,70.34
2018-11-23T07:36:48.407Z,69.86
2018-11-23T07:42:03.262Z,70.10
2018-11-23T07:47:06.874Z,70.17
2018-11-23T07:52:10.530Z,70.15
2018-11-23T07:57:14.067Z,70.10
2018-11-23T08:02:17.516Z,69.79
2018-11-23T08:07:21.193Z,69.82
2018-11-23T08:12:25.569Z,69.97
2018-11-23T08:17:28.968Z,69.18
2018-11-23T08:22:33.337Z,69.13
2018-11-23T08:27:36.893Z,68.11
2018-11-23T08:32:40.973Z,68.19
2018-11-23T08:37:45.026Z,67.17
2018-11-23T08:42:49.616Z,67.27
2018-11-23T08:47:54.583Z,66.14
2018-11-23T08:52:58.828Z,65.96
2018-11-23T08:58:03.468Z,65.37
2018-11-23T09:03:07.427Z,65.60
2018-11-23T09:08:11.168Z,65.85
2018-11-23T09:13:15.165Z,65.42
2018-11-23T09:18:19.100Z,64.73
2018-11-23T09:23:22.717Z,63.71
2018-11-23T09:28:26.344Z,62.38
2018-11-23T09:33:29.691Z,62.76
2018-11-23T09:38:32.999Z,61.21
2018-11-23T09:43:36.293Z,60.64
2018-11-23T09:48:39.633Z,60.85
2018-11-23T09:53:42.939Z,59.80
2018-11-23T09:58:46.262Z,58.28
2018-11-23T10:03:50.172Z,59.29
2018-11-23T10:08:54.159Z,57.08
2018-11-23T10:13:57.465Z,58.00
2018-11-23T10:19:00.820Z,57.81
2018-11-23T10:24:04.628Z,58.37
2018-11-23T10:29:08.394Z,57.10
2018-11-23T10:34:11.757Z,55.99
2018-11-23T10:39:15.634Z,56.21
2018-11-23T10:44:19.025Z,57.58
2018-11-23T10:49:22.365Z,57.20
2018-11-23T10:54:25.773Z,55.27
2018-11-23T10:59:39.875Z,55.13
2018-11-23T11:04:48.161Z,54.82
2018-11-23T11:09:51.661Z,54.33
2018-11-23T11:14:55.079Z,52.21
2018-11-23T11:19:59.337Z,46.08
2018-11-23T11:25:04.396Z,41.51
2018-11-23T11:30:11.540Z,40.17
2018-11-23T11:35:15.139Z,40.00
2018-11-23T11:40:19.591Z,39.97
2018-11-23T11:45:23.297Z,42.73
2018-11-23T11:50:26.635Z,44.05
2018-11-23T11:55:30.014Z,44.88
2018-11-23T12:00:33.371Z,43.87
2018-11-23T12:05:36.737Z,43.65
2018-11-23T12:12:23.261Z,43.90
2018-11-23T12:17:26.618Z,46.87
2018-11-23T12:22:29.939Z,48.27
2018-11-23T12:27:33.432Z,48.25
2018-11-23T12:32:37.089Z,49.34
2018-11-23T12:37:40.849Z,48.19
2018-11-23T12:42:44.694Z,49.88
2018-11-23T12:47:48.067Z,50.75
2018-11-23T12:52:51.470Z,51.33
2018-11-23T12:57:54.811Z,50.89
2018-11-23T13:03:00.496Z,50.53
2018-11-23T13:08:05.584Z,49.24
2018-11-23T13:13:09.008Z,47.76
2018-11-23T13:18:12.514Z,47.75
2018-11-23T13:23:16.052Z,49.85
2018-11-23T13:28:19.586Z,51.09
2018-11-23T13:33:23.196Z,52.55
2018-11-23T13:38:26.854Z,53.31
2018-11-23T13:43:30.236Z,54.04
2018-11-23T13:48:33.697Z,54.16
2018-11-23T13:53:37.148Z,54.62
2018-11-23T13:58:40.482Z,55.34
2018-11-23T14:03:43.935Z,55.56
2018-11-23T14:08:47.386Z,55.49
2018-11-23T14:13:50.804Z,55.80
2018-11-23T14:18:54.167Z,55.43
2018-11-23T14:23:57.503Z,55.28
2018-11-23T14:29:00.820Z,55.91
2018-11-23T14:34:04.301Z,55.77
2018-11-23T14:39:09.177Z,56.62
2018-11-23T14:44:12.617Z,57.23
2018-11-23T14:49:16.119Z,57.14
2018-11-23T14:54:19.648Z,57.24
2018-11-23T14:59:23.054Z,57.86
2018-11-23T15:04:26.902Z,57.47
2018-11-23T15:09:30.296Z,58.00
2018-11-23T15:14:33.911Z,58.00
2018-11-23T15:19:37.554Z,58.01
2018-11-23T15:24:40.917Z,57.87
2018-11-23T15:29:44.230Z,58.47
2018-11-23T15:34:47.894Z,58.07
2018-11-23T15:39:51.434Z,57.77
2018-11-23T15:44:54.816Z,57.88
2018-11-23T15:49:58.128Z,58.18
2018-11-23T15:55:01.669Z,58.25
2018-11-23T16:00:09.434Z,58.04
2018-11-23T16:05:13.302Z,58.17
2018-11-23T16:10:20.049Z,58.55
2018-11-23T16:15:23.943Z,58.65
2018-11-23T16:20:29.832Z,58.56
2018-11-23T16:25:33.324Z,58.74
2018-11-23T16:30:39.327Z,58.37
2018-11-23T16:35:43.380Z,58.79
2018-11-23T16:40:48.637Z,58.43
2018-11-23T16:45:52.018Z,58.41
2018-11-23T16:50:55.395Z,58.05
2018-11-23T16:55:58.858Z,58.39
2018-11-23T17:01:02.387Z,58.13
2018-11-23T17:06:05.949Z,58.59
2018-11-23T17:11:09.304Z,58.37
2018-11-23T17:16:12.617Z,58.33
2018-11-23T17:21:16.048Z,57.92
2018-11-23T17:26:19.656Z,58.10
2018-11-23T17:31:23.062Z,58.07
2018-11-23T17:36:26.518Z,58.90
2018-11-23T17:41:29.873Z,58.54
2018-11-23T17:46:33.340Z,57.69
2018-11-23T17:51:36.815Z,57.82
2018-11-23T17:56:40.363Z,57.85
2018-11-23T18:01:43.856Z,58.77
2018-11-23T18:06:47.275Z,58.89
2018-11-23T18:11:50.656Z,60.04
2018-11-23T18:16:54.375Z,60.79
2018-11-23T18:21:57.861Z,60.13
2018-11-23T18:27:01.331Z,60.33
2018-11-23T18:32:04.719Z,59.37
2018-11-23T18:37:08.131Z,59.70
2018-11-23T18:42:11.693Z,60.04
2018-11-23T18:47:15.472Z,61.19
2018-11-23T18:52:20.672Z,60.63
2018-11-23T18:57:24.343Z,61.99
2018-11-23T19:02:27.840Z,62.04
2018-11-23T19:07:31.544Z,61.80
2018-11-23T19:12:34.867Z,61.12
2018-11-23T19:17:38.172Z,61.99
2018-11-23T19:22:42.477Z,63.07
2018-11-23T19:27:46.063Z,63.95
2018-11-23T19:32:49.600Z,64.09
2018-11-23T19:37:53.212Z,63.56
2018-11-23T19:42:56.670Z,62.96
2018-11-23T19:48:00.136Z,61.37
2018-11-23T19:53:03.644Z,61.17
2018-11-23T19:58:08.096Z,61.44
2018-11-23T20:03:11.807Z,61.37
2018-11-23T20:08:15.140Z,61.60
2018-11-23T20:13:18.518Z,61.29
2018-11-23T20:18:21.934Z,61.58
2018-11-23T20:23:25.248Z,61.38
2018-11-23T20:28:28.588Z,61.06
2018-11-23T20:33:32.065Z,61.55
2018-11-23T20:38:35.384Z,61.38
2018-11-23T20:43:39.660Z,61.93
2018-11-23T20:48:43.075Z,61.60
2018-11-23T20:53:46.390Z,60.95
2018-11-23T20:58:49.895Z,60.94
2018-11-23T21:03:53.372Z,61.57
2018-11-23T21:08:56.691Z,61.13
2018-11-23T21:14:00.208Z,60.67
2018-11-23T21:19:03.799Z,61.13
2018-11-23T21:24:15.505Z,60.98
2018-11-23T21:29:19.219Z,60.86
2018-11-23T21:34:22.879Z,59.90
2018-11-23T21:39:27.461Z,59.75
2018-11-23T21:44:31.195Z,59.89
2018-11-23T21:49:34.647Z,60.21
2018-11-23T21:54:38.301Z,59.74
2018-11-23T21:59:43.088Z,59.95
2018-11-23T22:04:46.747Z,59.66
2018-11-23T22:09:50.208Z,59.34
2018-11-23T22:14:53.966Z,59.56
2018-11-23T22:19:57.623Z,59.00
2018-11-23T22:25:01.385Z,58.63
2018-11-23T22:30:10.625Z,58.83
2018-11-23T22:35:14.412Z,59.30
2018-11-23T22:40:19.091Z,58.85
2018-11-23T22:45:23.236Z,59.01
2018-11-23T22:50:27.081Z,58.50
2018-11-23T22:55:30.741Z,59.24
2018-11-23T23:00:41.377Z,59.51
2018-11-23T23:05:45.100Z,59.21
2018-11-23T23:10:48.488Z,59.54
2018-11-23T23:15:52.021Z,59.10
2018-11-23T23:20:55.649Z,58.60
2018-11-23T23:26:00.119Z,59.31
2018-11-23T23:31:05.501Z,58.86
2018-11-23T23:36:11.444Z,59.48
2018-11-23T23:41:15.044Z,59.99
2018-11-23T23:46:18.599Z,60.76
2018-11-23T23:51:22.088Z,59.69
2018-11-23T23:56:25.459Z,59.85
